Extreme high temperature From: 23-07-2018 05:00 Until: 24-07-2018 01:00 warning for: Extreme high temperature Level: Yellow info button
suomi:
Hellevaroitus: Lähivuorokauden aikana on odotettavissa tukalaa hellettä.

svenska:
Varning för värmebölja: Under det närmaste dygnet är den svåra hettan att vänta.

english:
Heat wave warning: Warm weather is expected during the coming 24 hours. 


Thunder radar more information blitzortung!


Löydät sääaseman tiedot myös:

European Weather Network

Finland Weather Exchange

Weather Underground

AWEKAS



Weather Underground säähistoriasivu

Päivittäin yhteenveto Maaliskuu 21, 2017 Yksiköt:  Metriset    Englantilaiset   Molemmat
« Edellinen Päivä
Seuraava Päivä »
Päivittäin Viikoittain Kuukausittain Vuosittain Mukautettu
  Korkea: Matala: Keskiarvo:
Lämpötila: -17.8 °C -18.6 °C -17.5 °C
Kastepiste: -17.8 °C -21.2 °C -18.7 °C
Kosteus: Humidity % 65 % 85 %
Tuulen nopeus: 0 km/h 0 km/h 2.4 km/h
Tuulenpuuska: 0 km/h - -
Tuuli:- - SSE
Ilmanpaine: 0 hPa 33453.7 hPa -
Sade: 0 mm    
Historical Graphs
 
 
Taulukkotiedot Maaliskuu 21, 2017
Aika Lämpötila Kastepiste Ilmanpaine Tuuli Tuulen nopeus Tuulenpuuska Kosteus Sademäärä (tunneittain)
-17.8 °C -17.8 °C 0 hPa Calm     Humidity % 0 mm
00:00 -18.3 °C -21.1 °C 33809.2 hPa Calm   5.1 km/h 69 % 0 mm
00:15 -18.2 °C -21.1 °C 33809.2 hPa Calm   5.1 km/h 68 % 0 mm
00:30 -18.1 °C -21.2 °C 33799.1 hPa Calm   5.1 km/h 66 % 0 mm
00:45 -18 °C -21.2 °C 33799.1 hPa Calm   7.7 km/h 65 % 0 mm
01:00 -17.9 °C -21.1 °C 33799.1 hPa Calm   10.3 km/h 66 % 0 mm
01:15 -17.9 °C -21.2 °C 33799.1 hPa Calm   7.7 km/h 65 % 0 mm
01:30 -18.1 °C -21.2 °C 33788.9 hPa Calm   5.1 km/h 66 % 0 mm
01:45 -18.2 °C -21.2 °C 33788.9 hPa Calm   10.3 km/h 67 % 0 mm
02:00 -18.4 °C -21.1 °C 33788.9 hPa Calm   10.3 km/h 69 % 0 mm
02:15 -18.4 °C -21.1 °C 33788.9 hPa Calm     70 % 0 mm
02:30 -18.5 °C -21.1 °C 33775.4 hPa Calm   10.3 km/h 71 % 0 mm
02:45 -18.6 °C -20.8 °C 33775.4 hPa Calm   5.1 km/h 74 % 0 mm
03:00 -18.6 °C -21 °C 33775.4 hPa Calm   10.3 km/h 72 % 0 mm
03:15 -18.5 °C -20.8 °C 33765.2 hPa Calm   7.7 km/h 73 % 0 mm
03:30 -18.4 °C -20.8 °C 33765.2 hPa Calm   7.7 km/h 73 % 0 mm
03:45 -18.4 °C -20.7 °C 33765.2 hPa SE 2.6 km/h 10.3 km/h 74 % 0 mm
04:00 -18.4 °C -20.6 °C 33765.2 hPa SSE 2.6 km/h 15.6 km/h 75 % 0 mm
04:15 -18.4 °C -20.3 °C 33751.6 hPa Calm     77 % 0 mm
04:30 -18.3 °C -20.3 °C 33751.6 hPa SSE 2.6 km/h 12.9 km/h 77 % 0 mm
04:45 -18.3 °C -20.1 °C 33741.5 hPa Calm   12.9 km/h 78 % 0 mm
05:00 -18.2 °C -20 °C 33741.5 hPa Calm   7.7 km/h 79 % 0 mm
05:15 -18.2 °C -20 °C 33741.5 hPa Calm   12.9 km/h 79 % 0 mm
05:30 -18.2 °C -19.9 °C 33731.3 hPa SE 2.6 km/h 18.2 km/h 80 % 0 mm
05:45 -18.2 °C -19.8 °C 33731.3 hPa SE 2.6 km/h 12.9 km/h 81 % 0 mm
06:00 -18.2 °C -19.8 °C 33731.3 hPa Calm   10.3 km/h 81 % 0 mm
06:15 -18.2 °C -19.7 °C 33731.3 hPa Calm   10.3 km/h 82 % 0 mm
06:30 -18.2 °C -19.6 °C 33717.8 hPa Calm   15.6 km/h 83 % 0 mm
06:45 -18.2 °C -19.5 °C 33717.8 hPa Calm   12.9 km/h 84 % 0 mm
07:00 -18.2 °C -19.4 °C 33717.8 hPa Calm   10.3 km/h 85 % 0 mm
07:15 -18.1 °C -19.3 °C 33707.6 hPa Calm   5.1 km/h 85 % 0 mm
07:30 -18 °C -19.2 °C 33707.6 hPa South 2.6 km/h 10.3 km/h 86 % 0 mm
07:45 -17.9 °C -19.1 °C 33694.1 hPa SSE 2.6 km/h 12.9 km/h 86 % 0 mm
08:00 -17.9 °C -19.1 °C 33694.1 hPa Calm   12.9 km/h 86 % 0 mm
08:15 -17.8 °C -19 °C 33694.1 hPa SE 2.6 km/h 15.6 km/h 86 % 0 mm
08:30 -17.8 °C -18.8 °C 33683.9 hPa Calm   10.3 km/h 87 % 0 mm
08:45 -17.7 °C -18.8 °C 33683.9 hPa SE 2.6 km/h 15.6 km/h 87 % 0 mm
09:00 -17.6 °C -18.7 °C 33673.8 hPa SSE 2.6 km/h 18.2 km/h 87 % 0 mm
09:15 -17.6 °C -18.7 °C 33673.8 hPa Calm   15.6 km/h 87 % 0 mm
09:30 -17.6 °C -18.7 °C 33673.8 hPa ESE 2.6 km/h 12.9 km/h 86 % 0 mm
09:45 -17.4 °C -18.6 °C 33660.2 hPa SE 2.6 km/h 18.2 km/h 86 % 0 mm
10:00 -17.4 °C -18.6 °C 33660.2 hPa SE 2.6 km/h 18.2 km/h 86 % 0 mm
10:15 -17.4 °C -18.6 °C 33650.1 hPa SE 7.7 km/h 31.1 km/h 86 % 0 mm
10:30 -17.3 °C -18.4 °C 33639.9 hPa SSE 2.6 km/h 15.6 km/h 86 % 0 mm
10:45 -17.2 °C -18.4 °C 33626.4 hPa South 2.6 km/h 12.9 km/h 86 % 0 mm
11:00 -17.2 °C -18.3 °C 33639.9 hPa SSE 7.7 km/h 28.5 km/h 86 % 0 mm
11:15 -17.1 °C -18.3 °C 33626.4 hPa SSE 2.6 km/h 18.2 km/h 86 % 0 mm
11:30 -17.1 °C -18.3 °C 33626.4 hPa SE 2.6 km/h 15.6 km/h 86 % 0 mm
11:45 -17.1 °C -18.2 °C 33616.2 hPa SE 2.6 km/h 15.6 km/h 86 % 0 mm
12:00 -17.1 °C -18.2 °C 33616.2 hPa ESE 2.6 km/h 18.2 km/h 86 % 0 mm
12:15 -17 °C -18.2 °C 33616.2 hPa ESE 2.6 km/h 20.8 km/h 86 % 0 mm
12:30 -17 °C -18.1 °C 33602.7 hPa SE 2.6 km/h 12.9 km/h 86 % 0 mm
12:45 -16.9 °C -18.1 °C 33592.5 hPa SE 2.6 km/h 23.3 km/h 86 % 0 mm
13:00 -16.9 °C -18.1 °C 33592.5 hPa SE 2.6 km/h 20.8 km/h 86 % 0 mm
13:15 -16.8 °C -17.9 °C 33582.3 hPa SE 5.1 km/h 18.2 km/h 87 % 0 mm
13:30 -16.9 °C -17.9 °C 33582.3 hPa SE 2.6 km/h 18.2 km/h 87 % 0 mm
13:45 -16.9 °C -17.9 °C 33568.8 hPa SE 2.6 km/h 18.2 km/h 87 % 0 mm
14:00 -16.8 °C -17.9 °C 33568.8 hPa ESE 2.6 km/h 15.6 km/h 87 % 0 mm
14:15 -16.8 °C -17.9 °C 33558.6 hPa East 2.6 km/h 23.3 km/h 87 % 0 mm
14:30 -16.8 °C -17.8 °C 33558.6 hPa SSE 2.6 km/h 15.6 km/h 87 % 0 mm
14:45 -16.7 °C -17.8 °C 33545.1 hPa Calm   10.3 km/h 87 % 0 mm
15:00 -16.8 °C -17.7 °C 33545.1 hPa SE 2.6 km/h 12.9 km/h 88 % 0 mm
15:15 -16.8 °C -17.7 °C 33534.9 hPa ESE 2.6 km/h 10.3 km/h 89 % 0 mm
15:30 -16.8 °C -17.7 °C 33524.8 hPa ESE 5.1 km/h 20.8 km/h 89 % 0 mm
15:45 -16.8 °C -17.6 °C 33511.2 hPa ESE 2.6 km/h 23.3 km/h 90 % 0 mm
16:00 -16.8 °C -17.6 °C 33501.1 hPa SE 2.6 km/h 18.2 km/h 90 % 0 mm
16:15 -16.9 °C -17.6 °C 33501.1 hPa SE 2.6 km/h 25.9 km/h 91 % 0 mm
16:30 -17 °C -17.6 °C 33501.1 hPa East 2.6 km/h 12.9 km/h 92 % 0 mm
16:45 -17.1 °C -17.7 °C 33490.9 hPa East 2.6 km/h 15.6 km/h 93 % 0 mm
17:00 -17.3 °C -17.7 °C 33477.4 hPa Calm   12.9 km/h 94 % 0 mm
17:15 -17.3 °C -17.8 °C 33477.4 hPa Calm   10.3 km/h 94 % 0 mm
17:30 -17.3 °C -17.7 °C 33477.4 hPa ESE 2.6 km/h 15.6 km/h 95 % 0 mm
17:45 -17.2 °C -17.6 °C 33467.2 hPa SSE 5.1 km/h 18.2 km/h 95 % 0 mm
18:00 -17.2 °C -17.6 °C 33467.2 hPa South 5.1 km/h 18.2 km/h 95 % 0 mm
18:15 -17.3 °C -17.7 °C 33467.2 hPa SE 2.6 km/h 18.2 km/h 95 % 0 mm
18:30 -17.3 °C -17.7 °C 33467.2 hPa SSE 2.6 km/h 20.8 km/h 95 % 0 mm
18:45 -17.3 °C -17.6 °C 33467.2 hPa SSE 5.1 km/h 15.6 km/h 96 % 0 mm
19:00 -17.3 °C -17.6 °C 33453.7 hPa SSE 2.6 km/h 12.9 km/h 96 % 0 mm
19:15 -17.2 °C -17.6 °C 33467.2 hPa SSE 2.6 km/h 12.9 km/h 96 % 0 mm
19:30 -17.2 °C -17.5 °C 33453.7 hPa SSE 5.1 km/h 18.2 km/h 96 % 0 mm
19:45 -17.1 °C -17.4 °C 33453.7 hPa SSE 5.1 km/h 23.3 km/h 96 % 0 mm
20:00 -17.1 °C -17.4 °C 33467.2 hPa SSE 7.7 km/h 23.3 km/h 96 % 0 mm
20:15 -17.1 °C -17.4 °C 33467.2 hPa South 7.7 km/h 20.8 km/h 96 % 0 mm
20:30 -17.1 °C -17.4 °C 33467.2 hPa South 7.7 km/h 18.2 km/h 96 % 0 mm
20:45 -17.1 °C -17.4 °C 33467.2 hPa South 7.7 km/h 20.8 km/h 96 % 0 mm
21:00 -17.1 °C -17.4 °C 33467.2 hPa South 2.6 km/h 23.3 km/h 96 % 0 mm
21:15 -17.2 °C -17.6 °C 33467.2 hPa South 5.1 km/h 20.8 km/h 95 % 0 mm
21:30 -17.1 °C -17.4 °C 33467.2 hPa South 5.1 km/h 18.2 km/h 96 % 0 mm
21:45 -17.1 °C -17.4 °C 33467.2 hPa South 2.6 km/h 15.6 km/h 96 % 0 mm
22:00 -17.1 °C -17.4 °C 33467.2 hPa South 5.1 km/h 18.2 km/h 96 % 0 mm
22:15 -17.1 °C -17.3 °C 33467.2 hPa South 5.1 km/h 18.2 km/h 96 % 0 mm
22:30 -17.1 °C -17.3 °C 33467.2 hPa SSE 2.6 km/h 12.9 km/h 96 % 0 mm
22:45 -17 °C -17.3 °C 33453.7 hPa South 2.6 km/h 10.3 km/h 96 % 0 mm
23:00 -16.9 °C -17.3 °C 33467.2 hPa SSE 2.6 km/h 18.2 km/h 96 % 0 mm
23:15 -16.9 °C -17.2 °C 33467.2 hPa South 5.1 km/h 12.9 km/h 96 % 0 mm
23:30 -16.9 °C -17.2 °C 33467.2 hPa South 5.1 km/h 18.2 km/h 96 % 0 mm
23:45 -16.9 °C -17.2 °C 33467.2 hPa South 5.1 km/h 20.8 km/h 96 % 0 mm
Esan sääasema
Terveisin Weather Underground - 2.75 mb

Alkuperäinen skripti  Jim McMurry - jmcmurry@mwt.net Sovitettu myös templatelle  Wim van der Kuil - Leuven-Template.eu

Laitteet joita käytämme:

Sääasema
Davis VP2

Sääasemaohjelma
Cumulus

Sääaseman tietokone
Asus EeePC

Palveluntarjoaja
Suncomet

Davis VP2

Cumulus

Asus EeePC

Suncomet